sensor_id;sensor_type;location;lat;lon;timestamp;P1;durP1;ratioP1;P2;durP2;ratioP2
26375;SDS011;30544;42.196;24.336;2023-03-19T00:01:45;27.25;;;14.73;;
26375;SDS011;30544;42.196;24.336;2023-03-19T00:04:13;23.48;;;12.75;;
26375;SDS011;30544;42.196;24.336;2023-03-19T00:06:41;28.55;;;14.73;;
26375;SDS011;30544;42.196;24.336;2023-03-19T00:09:08;28.40;;;15.80;;
26375;SDS011;30544;42.196;24.336;2023-03-19T00:11:36;33.90;;;16.40;;
26375;SDS011;30544;42.196;24.336;2023-03-19T00:14:03;39.08;;;17.75;;
26375;SDS011;30544;42.196;24.336;2023-03-19T00:16:30;40.22;;;17.98;;
26375;SDS011;30544;42.196;24.336;2023-03-19T00:18:57;27.80;;;14.30;;
26375;SDS011;30544;42.196;24.336;2023-03-19T00:21:25;25.27;;;13.15;;
26375;SDS011;30544;42.196;24.336;2023-03-19T00:23:52;22.05;;;12.32;;
26375;SDS011;30544;42.196;24.336;2023-03-19T00:26:21;21.50;;;11.80;;
26375;SDS011;30544;42.196;24.336;2023-03-19T00:28:48;22.70;;;12.40;;
26375;SDS011;30544;42.196;24.336;2023-03-19T00:31:15;29.88;;;14.00;;
26375;SDS011;30544;42.196;24.336;2023-03-19T00:33:42;28.75;;;14.57;;
26375;SDS011;30544;42.196;24.336;2023-03-19T00:36:09;23.48;;;12.30;;
26375;SDS011;30544;42.196;24.336;2023-03-19T00:38:38;19.05;;;11.70;;
26375;SDS011;30544;42.196;24.336;2023-03-19T00:41:05;19.50;;;11.85;;
26375;SDS011;30544;42.196;24.336;2023-03-19T00:43:32;23.63;;;10.82;;
26375;SDS011;30544;42.196;24.336;2023-03-19T00:45:59;24.58;;;12.45;;
26375;SDS011;30544;42.196;24.336;2023-03-19T00:48:26;21.77;;;12.85;;
26375;SDS011;30544;42.196;24.336;2023-03-19T00:50:53;23.05;;;12.95;;
26375;SDS011;30544;42.196;24.336;2023-03-19T00:53:20;24.58;;;12.35;;
26375;SDS011;30544;42.196;24.336;2023-03-19T00:55:48;26.15;;;12.80;;
26375;SDS011;30544;42.196;24.336;2023-03-19T00:58:15;23.42;;;13.50;;
26375;SDS011;30544;42.196;24.336;2023-03-19T01:00:42;25.95;;;15.05;;
26375;SDS011;30544;42.196;24.336;2023-03-19T01:03:09;19.40;;;11.57;;
26375;SDS011;30544;42.196;24.336;2023-03-19T01:05:36;23.13;;;11.68;;
26375;SDS011;30544;42.196;24.336;2023-03-19T01:08:02;23.13;;;12.38;;
26375;SDS011;30544;42.196;24.336;2023-03-19T01:10:31;21.27;;;12.55;;
26375;SDS011;30544;42.196;24.336;2023-03-19T01:13:00;20.88;;;12.32;;
26375;SDS011;30544;42.196;24.336;2023-03-19T01:15:27;23.40;;;12.85;;
26375;SDS011;30544;42.196;24.336;2023-03-19T01:17:54;20.30;;;12.57;;
26375;SDS011;30544;42.196;24.336;2023-03-19T01:20:20;21.33;;;12.05;;
26375;SDS011;30544;42.196;24.336;2023-03-19T01:22:48;21.08;;;13.32;;
26375;SDS011;30544;42.196;24.336;2023-03-19T01:25:15;25.88;;;14.05;;
26375;SDS011;30544;42.196;24.336;2023-03-19T01:27:42;21.92;;;13.63;;
26375;SDS011;30544;42.196;24.336;2023-03-19T01:30:11;24.70;;;13.48;;
26375;SDS011;30544;42.196;24.336;2023-03-19T01:32:38;24.65;;;14.00;;
26375;SDS011;30544;42.196;24.336;2023-03-19T01:35:05;23.05;;;14.00;;
26375;SDS011;30544;42.196;24.336;2023-03-19T01:37:33;26.42;;;13.68;;
26375;SDS011;30544;42.196;24.336;2023-03-19T01:40:01;21.73;;;14.05;;
26375;SDS011;30544;42.196;24.336;2023-03-19T01:42:28;22.92;;;14.05;;
26375;SDS011;30544;42.196;24.336;2023-03-19T01:44:55;23.45;;;14.13;;
26375;SDS011;30544;42.196;24.336;2023-03-19T01:47:24;23.50;;;14.02;;
26375;SDS011;30544;42.196;24.336;2023-03-19T01:52:24;23.20;;;14.48;;
26375;SDS011;30544;42.196;24.336;2023-03-19T01:54:54;25.60;;;15.05;;
26375;SDS011;30544;42.196;24.336;2023-03-19T01:57:22;27.42;;;15.73;;
26375;SDS011;30544;42.196;24.336;2023-03-19T01:59:50;25.40;;;15.45;;
26375;SDS011;30544;42.196;24.336;2023-03-19T02:02:21;29.15;;;15.43;;
26375;SDS011;30544;42.196;24.336;2023-03-19T02:04:55;26.30;;;14.18;;
26375;SDS011;30544;42.196;24.336;2023-03-19T02:07:26;24.52;;;13.85;;
26375;SDS011;30544;42.196;24.336;2023-03-19T02:09:54;28.13;;;13.68;;
26375;SDS011;30544;42.196;24.336;2023-03-19T02:12:21;22.00;;;12.80;;
26375;SDS011;30544;42.196;24.336;2023-03-19T02:14:48;23.25;;;13.35;;
26375;SDS011;30544;42.196;24.336;2023-03-19T02:17:15;21.38;;;13.30;;
26375;SDS011;30544;42.196;24.336;2023-03-19T02:19:42;24.77;;;12.90;;
26375;SDS011;30544;42.196;24.336;2023-03-19T02:22:16;22.02;;;13.70;;
26375;SDS011;30544;42.196;24.336;2023-03-19T02:24:48;22.20;;;12.95;;
26375;SDS011;30544;42.196;24.336;2023-03-19T02:27:20;25.77;;;13.88;;
26375;SDS011;30544;42.196;24.336;2023-03-19T02:29:47;25.33;;;13.45;;
26375;SDS011;30544;42.196;24.336;2023-03-19T02:32:14;26.27;;;13.18;;
26375;SDS011;30544;42.196;24.336;2023-03-19T02:34:42;25.30;;;13.73;;
26375;SDS011;30544;42.196;24.336;2023-03-19T02:37:11;26.00;;;13.77;;
26375;SDS011;30544;42.196;24.336;2023-03-19T02:39:45;25.45;;;14.15;;
26375;SDS011;30544;42.196;24.336;2023-03-19T02:42:17;32.03;;;15.07;;
26375;SDS011;30544;42.196;24.336;2023-03-19T02:44:47;31.95;;;17.42;;
26375;SDS011;30544;42.196;24.336;2023-03-19T02:47:14;35.05;;;16.98;;
26375;SDS011;30544;42.196;24.336;2023-03-19T02:49:41;29.10;;;17.05;;
26375;SDS011;30544;42.196;24.336;2023-03-19T02:52:08;29.27;;;15.75;;
26375;SDS011;30544;42.196;24.336;2023-03-19T02:54:35;34.42;;;16.48;;
26375;SDS011;30544;42.196;24.336;2023-03-19T02:57:01;31.77;;;17.45;;
26375;SDS011;30544;42.196;24.336;2023-03-19T02:59:30;32.28;;;17.02;;
26375;SDS011;30544;42.196;24.336;2023-03-19T03:01:56;27.38;;;15.98;;
26375;SDS011;30544;42.196;24.336;2023-03-19T03:04:23;31.95;;;15.73;;
26375;SDS011;30544;42.196;24.336;2023-03-19T03:06:50;28.90;;;15.07;;
26375;SDS011;30544;42.196;24.336;2023-03-19T03:09:17;24.95;;;14.23;;
26375;SDS011;30544;42.196;24.336;2023-03-19T03:11:44;21.42;;;12.93;;
26375;SDS011;30544;42.196;24.336;2023-03-19T03:14:11;25.08;;;13.57;;
26375;SDS011;30544;42.196;24.336;2023-03-19T03:16:39;24.70;;;12.30;;
26375;SDS011;30544;42.196;24.336;2023-03-19T03:19:06;23.55;;;13.00;;
26375;SDS011;30544;42.196;24.336;2023-03-19T03:21:33;23.75;;;11.85;;
26375;SDS011;30544;42.196;24.336;2023-03-19T03:24:00;20.40;;;12.63;;
26375;SDS011;30544;42.196;24.336;2023-03-19T03:26:27;22.98;;;12.32;;
26375;SDS011;30544;42.196;24.336;2023-03-19T03:28:53;19.95;;;11.25;;
26375;SDS011;30544;42.196;24.336;2023-03-19T03:31:20;19.73;;;11.70;;
26375;SDS011;30544;42.196;24.336;2023-03-19T03:33:48;21.77;;;11.25;;
26375;SDS011;30544;42.196;24.336;2023-03-19T03:36:15;20.67;;;11.38;;
26375;SDS011;30544;42.196;24.336;2023-03-19T03:38:43;25.48;;;11.98;;
26375;SDS011;30544;42.196;24.336;2023-03-19T03:41:10;20.25;;;13.15;;
26375;SDS011;30544;42.196;24.336;2023-03-19T03:43:37;24.13;;;12.80;;
26375;SDS011;30544;42.196;24.336;2023-03-19T03:46:05;23.20;;;12.75;;
26375;SDS011;30544;42.196;24.336;2023-03-19T03:48:32;23.77;;;12.55;;
26375;SDS011;30544;42.196;24.336;2023-03-19T03:51:00;26.40;;;13.93;;
26375;SDS011;30544;42.196;24.336;2023-03-19T03:53:28;23.88;;;14.02;;
26375;SDS011;30544;42.196;24.336;2023-03-19T03:55:55;28.17;;;13.88;;
26375;SDS011;30544;42.196;24.336;2023-03-19T03:58:22;22.35;;;13.77;;
26375;SDS011;30544;42.196;24.336;2023-03-19T04:00:49;28.95;;;14.88;;
26375;SDS011;30544;42.196;24.336;2023-03-19T04:03:16;33.78;;;17.83;;
26375;SDS011;30544;42.196;24.336;2023-03-19T04:05:43;34.95;;;20.77;;
26375;SDS011;30544;42.196;24.336;2023-03-19T04:08:11;35.78;;;18.45;;
26375;SDS011;30544;42.196;24.336;2023-03-19T04:10:39;32.97;;;20.67;;
26375;SDS011;30544;42.196;24.336;2023-03-19T04:13:06;38.67;;;22.65;;
26375;SDS011;30544;42.196;24.336;2023-03-19T04:15:33;41.15;;;21.55;;
26375;SDS011;30544;42.196;24.336;2023-03-19T04:18:00;53.83;;;23.70;;
26375;SDS011;30544;42.196;24.336;2023-03-19T04:20:27;52.80;;;26.65;;
26375;SDS011;30544;42.196;24.336;2023-03-19T04:22:54;49.88;;;26.25;;
26375;SDS011;30544;42.196;24.336;2023-03-19T04:25:22;50.97;;;27.30;;
26375;SDS011;30544;42.196;24.336;2023-03-19T04:27:49;49.38;;;27.92;;
26375;SDS011;30544;42.196;24.336;2023-03-19T04:30:16;55.90;;;29.10;;
26375;SDS011;30544;42.196;24.336;2023-03-19T04:32:44;62.97;;;29.52;;
26375;SDS011;30544;42.196;24.336;2023-03-19T04:35:11;54.22;;;27.55;;
26375;SDS011;30544;42.196;24.336;2023-03-19T04:37:38;54.22;;;28.58;;
26375;SDS011;30544;42.196;24.336;2023-03-19T04:40:05;57.28;;;29.65;;
26375;SDS011;30544;42.196;24.336;2023-03-19T04:42:34;52.70;;;28.05;;
26375;SDS011;30544;42.196;24.336;2023-03-19T04:45:01;51.60;;;27.08;;
26375;SDS011;30544;42.196;24.336;2023-03-19T04:47:30;52.22;;;24.45;;
26375;SDS011;30544;42.196;24.336;2023-03-19T04:49:57;46.13;;;22.90;;
26375;SDS011;30544;42.196;24.336;2023-03-19T04:52:24;44.22;;;21.58;;
26375;SDS011;30544;42.196;24.336;2023-03-19T04:54:51;40.55;;;20.80;;
26375;SDS011;30544;42.196;24.336;2023-03-19T04:57:17;48.78;;;22.67;;
26375;SDS011;30544;42.196;24.336;2023-03-19T04:59:45;42.50;;;22.98;;
26375;SDS011;30544;42.196;24.336;2023-03-19T05:02:12;43.80;;;22.77;;
26375;SDS011;30544;42.196;24.336;2023-03-19T05:04:39;46.45;;;22.73;;
26375;SDS011;30544;42.196;24.336;2023-03-19T05:07:06;46.42;;;21.90;;
26375;SDS011;30544;42.196;24.336;2023-03-19T05:09:33;36.83;;;18.40;;
26375;SDS011;30544;42.196;24.336;2023-03-19T05:12:00;37.60;;;19.08;;
26375;SDS011;30544;42.196;24.336;2023-03-19T05:14:26;35.47;;;18.65;;
26375;SDS011;30544;42.196;24.336;2023-03-19T05:16:55;42.30;;;20.17;;
26375;SDS011;30544;42.196;24.336;2023-03-19T05:19:21;164.32;;;58.05;;
26375;SDS011;30544;42.196;24.336;2023-03-19T05:21:49;39.25;;;20.50;;
26375;SDS011;30544;42.196;24.336;2023-03-19T05:24:16;109.10;;;40.40;;
26375;SDS011;30544;42.196;24.336;2023-03-19T05:26:42;59.83;;;25.95;;
26375;SDS011;30544;42.196;24.336;2023-03-19T05:29:10;32.70;;;19.70;;
26375;SDS011;30544;42.196;24.336;2023-03-19T05:31:38;41.45;;;20.30;;
26375;SDS011;30544;42.196;24.336;2023-03-19T05:34:07;40.00;;;19.95;;
26375;SDS011;30544;42.196;24.336;2023-03-19T05:36:33;33.08;;;14.32;;
26375;SDS011;30544;42.196;24.336;2023-03-19T05:39:00;25.58;;;12.63;;
26375;SDS011;30544;42.196;24.336;2023-03-19T05:41:27;24.02;;;12.45;;
26375;SDS011;30544;42.196;24.336;2023-03-19T05:43:54;23.75;;;12.50;;
26375;SDS011;30544;42.196;24.336;2023-03-19T05:46:21;22.60;;;12.63;;
26375;SDS011;30544;42.196;24.336;2023-03-19T05:48:48;19.40;;;12.13;;
26375;SDS011;30544;42.196;24.336;2023-03-19T05:51:17;23.23;;;12.07;;
26375;SDS011;30544;42.196;24.336;2023-03-19T05:53:43;26.27;;;15.02;;
26375;SDS011;30544;42.196;24.336;2023-03-19T05:56:10;23.48;;;13.07;;
26375;SDS011;30544;42.196;24.336;2023-03-19T05:58:37;20.60;;;11.70;;
26375;SDS011;30544;42.196;24.336;2023-03-19T06:01:04;29.52;;;15.55;;
26375;SDS011;30544;42.196;24.336;2023-03-19T06:03:31;16.00;;;10.63;;
26375;SDS011;30544;42.196;24.336;2023-03-19T06:05:57;25.13;;;12.30;;
26375;SDS011;30544;42.196;24.336;2023-03-19T06:08:26;20.58;;;12.30;;
26375;SDS011;30544;42.196;24.336;2023-03-19T06:10:53;22.38;;;10.77;;
26375;SDS011;30544;42.196;24.336;2023-03-19T06:13:20;27.65;;;11.75;;
26375;SDS011;30544;42.196;24.336;2023-03-19T06:15:47;18.38;;;10.82;;
26375;SDS011;30544;42.196;24.336;2023-03-19T06:18:14;18.35;;;10.35;;
26375;SDS011;30544;42.196;24.336;2023-03-19T06:20:41;15.27;;;10.07;;
26375;SDS011;30544;42.196;24.336;2023-03-19T06:23:09;19.52;;;10.38;;
26375;SDS011;30544;42.196;24.336;2023-03-19T06:25:37;18.23;;;10.65;;
26375;SDS011;30544;42.196;24.336;2023-03-19T06:28:04;18.15;;;10.80;;
26375;SDS011;30544;42.196;24.336;2023-03-19T06:30:31;15.30;;;9.82;;
26375;SDS011;30544;42.196;24.336;2023-03-19T06:32:58;16.95;;;10.02;;
26375;SDS011;30544;42.196;24.336;2023-03-19T06:35:25;15.00;;;9.27;;
26375;SDS011;30544;42.196;24.336;2023-03-19T06:37:52;17.13;;;9.57;;
26375;SDS011;30544;42.196;24.336;2023-03-19T06:40:19;18.00;;;10.15;;
26375;SDS011;30544;42.196;24.336;2023-03-19T06:42:47;17.25;;;9.80;;
26375;SDS011;30544;42.196;24.336;2023-03-19T06:45:14;18.85;;;10.35;;
26375;SDS011;30544;42.196;24.336;2023-03-19T06:47:43;14.23;;;9.93;;
26375;SDS011;30544;42.196;24.336;2023-03-19T06:50:11;15.48;;;9.75;;
26375;SDS011;30544;42.196;24.336;2023-03-19T06:52:38;15.68;;;10.50;;
26375;SDS011;30544;42.196;24.336;2023-03-19T06:55:06;17.42;;;11.18;;
26375;SDS011;30544;42.196;24.336;2023-03-19T06:57:33;18.25;;;11.30;;
26375;SDS011;30544;42.196;24.336;2023-03-19T07:00:05;26.08;;;9.80;;
26375;SDS011;30544;42.196;24.336;2023-03-19T07:02:35;19.25;;;11.60;;
26375;SDS011;30544;42.196;24.336;2023-03-19T07:05:04;20.33;;;10.10;;
26375;SDS011;30544;42.196;24.336;2023-03-19T07:07:31;15.80;;;9.50;;
26375;SDS011;30544;42.196;24.336;2023-03-19T07:09:58;16.95;;;8.15;;
26375;SDS011;30544;42.196;24.336;2023-03-19T07:12:25;13.23;;;7.68;;
26375;SDS011;30544;42.196;24.336;2023-03-19T07:14:52;10.23;;;6.22;;
26375;SDS011;30544;42.196;24.336;2023-03-19T07:17:21;10.43;;;6.35;;
26375;SDS011;30544;42.196;24.336;2023-03-19T07:19:49;11.48;;;5.75;;
26375;SDS011;30544;42.196;24.336;2023-03-19T07:22:16;10.68;;;6.40;;
26375;SDS011;30544;42.196;24.336;2023-03-19T07:24:43;10.18;;;6.10;;
26375;SDS011;30544;42.196;24.336;2023-03-19T07:27:10;9.88;;;5.60;;
26375;SDS011;30544;42.196;24.336;2023-03-19T07:29:36;11.30;;;6.63;;
26375;SDS011;30544;42.196;24.336;2023-03-19T07:32:03;9.10;;;5.63;;
26375;SDS011;30544;42.196;24.336;2023-03-19T07:34:32;28.80;;;9.20;;
26375;SDS011;30544;42.196;24.336;2023-03-19T07:36:59;9.30;;;5.10;;
26375;SDS011;30544;42.196;24.336;2023-03-19T07:39:25;69.25;;;23.65;;
26375;SDS011;30544;42.196;24.336;2023-03-19T07:41:52;99.18;;;35.35;;
26375;SDS011;30544;42.196;24.336;2023-03-19T07:44:19;15.60;;;8.18;;
26375;SDS011;30544;42.196;24.336;2023-03-19T07:46:46;12.07;;;7.07;;
26375;SDS011;30544;42.196;24.336;2023-03-19T07:49:12;10.93;;;5.85;;
26375;SDS011;30544;42.196;24.336;2023-03-19T07:51:40;14.23;;;7.38;;
26375;SDS011;30544;42.196;24.336;2023-03-19T07:54:07;8.15;;;5.40;;
26375;SDS011;30544;42.196;24.336;2023-03-19T07:56:34;7.05;;;5.32;;
26375;SDS011;30544;42.196;24.336;2023-03-19T07:59:01;7.15;;;5.22;;
26375;SDS011;30544;42.196;24.336;2023-03-19T08:01:28;9.13;;;5.68;;
26375;SDS011;30544;42.196;24.336;2023-03-19T08:03:54;7.82;;;5.60;;
26375;SDS011;30544;42.196;24.336;2023-03-19T08:06:21;9.02;;;5.38;;
26375;SDS011;30544;42.196;24.336;2023-03-19T08:08:50;5.82;;;3.92;;
26375;SDS011;30544;42.196;24.336;2023-03-19T08:11:16;7.38;;;4.30;;
26375;SDS011;30544;42.196;24.336;2023-03-19T08:13:43;6.63;;;4.28;;
26375;SDS011;30544;42.196;24.336;2023-03-19T08:16:10;9.30;;;4.38;;
26375;SDS011;30544;42.196;24.336;2023-03-19T08:18:37;5.85;;;3.63;;
26375;SDS011;30544;42.196;24.336;2023-03-19T08:21:04;6.82;;;4.30;;
26375;SDS011;30544;42.196;24.336;2023-03-19T08:23:31;4.53;;;3.28;;
26375;SDS011;30544;42.196;24.336;2023-03-19T08:26:00;7.70;;;4.60;;
26375;SDS011;30544;42.196;24.336;2023-03-19T08:28:27;18.70;;;8.32;;
26375;SDS011;30544;42.196;24.336;2023-03-19T08:30:54;10.27;;;4.90;;
26375;SDS011;30544;42.196;24.336;2023-03-19T08:33:21;7.70;;;5.15;;
26375;SDS011;30544;42.196;24.336;2023-03-19T08:35:48;8.15;;;4.90;;
26375;SDS011;30544;42.196;24.336;2023-03-19T08:38:16;5.38;;;3.83;;
26375;SDS011;30544;42.196;24.336;2023-03-19T08:40:44;6.40;;;4.18;;
26375;SDS011;30544;42.196;24.336;2023-03-19T08:43:12;7.28;;;4.10;;
26375;SDS011;30544;42.196;24.336;2023-03-19T08:45:39;9.80;;;5.07;;
26375;SDS011;30544;42.196;24.336;2023-03-19T08:48:05;66.60;;;25.58;;
26375;SDS011;30544;42.196;24.336;2023-03-19T08:50:32;15.23;;;6.75;;
26375;SDS011;30544;42.196;24.336;2023-03-19T08:52:59;6.15;;;4.05;;
26375;SDS011;30544;42.196;24.336;2023-03-19T08:55:26;259.98;;;87.80;;
26375;SDS011;30544;42.196;24.336;2023-03-19T08:57:53;214.80;;;63.88;;
26375;SDS011;30544;42.196;24.336;2023-03-19T09:00:21;17.42;;;7.45;;
26375;SDS011;30544;42.196;24.336;2023-03-19T09:02:48;87.25;;;28.77;;
26375;SDS011;30544;42.196;24.336;2023-03-19T09:05:15;6.70;;;3.15;;
26375;SDS011;30544;42.196;24.336;2023-03-19T09:07:46;34.13;;;12.38;;
26375;SDS011;30544;42.196;24.336;2023-03-19T09:10:13;9.07;;;4.07;;
26375;SDS011;30544;42.196;24.336;2023-03-19T09:12:40;6.50;;;3.15;;
26375;SDS011;30544;42.196;24.336;2023-03-19T09:15:07;5.40;;;3.10;;
26375;SDS011;30544;42.196;24.336;2023-03-19T09:17:35;6.90;;;3.63;;
26375;SDS011;30544;42.196;24.336;2023-03-19T09:20:05;5.32;;;2.85;;
26375;SDS011;30544;42.196;24.336;2023-03-19T09:22:33;27.30;;;17.30;;
26375;SDS011;30544;42.196;24.336;2023-03-19T09:24:59;7.18;;;3.85;;
26375;SDS011;30544;42.196;24.336;2023-03-19T09:27:26;5.40;;;3.40;;
26375;SDS011;30544;42.196;24.336;2023-03-19T09:29:53;6.65;;;3.92;;
26375;SDS011;30544;42.196;24.336;2023-03-19T09:32:20;6.47;;;3.92;;
26375;SDS011;30544;42.196;24.336;2023-03-19T09:34:49;7.78;;;4.47;;
26375;SDS011;30544;42.196;24.336;2023-03-19T09:37:15;16.08;;;8.43;;
26375;SDS011;30544;42.196;24.336;2023-03-19T09:39:42;8.40;;;4.75;;
26375;SDS011;30544;42.196;24.336;2023-03-19T09:42:14;7.07;;;3.60;;
26375;SDS011;30544;42.196;24.336;2023-03-19T09:44:47;11.90;;;5.20;;
26375;SDS011;30544;42.196;24.336;2023-03-19T09:47:21;8.32;;;4.20;;
26375;SDS011;30544;42.196;24.336;2023-03-19T09:52:29;13.45;;;7.32;;
26375;SDS011;30544;42.196;24.336;2023-03-19T09:55:03;9.57;;;5.15;;
26375;SDS011;30544;42.196;24.336;2023-03-19T09:57:37;13.35;;;5.95;;
26375;SDS011;30544;42.196;24.336;2023-03-19T10:00:10;12.23;;;4.60;;
26375;SDS011;30544;42.196;24.336;2023-03-19T10:02:46;8.02;;;4.78;;
26375;SDS011;30544;42.196;24.336;2023-03-19T10:05:21;9.25;;;5.00;;
26375;SDS011;30544;42.196;24.336;2023-03-19T10:08:06;8.88;;;5.45;;
26375;SDS011;30544;42.196;24.336;2023-03-19T10:10:59;6.22;;;3.97;;
26375;SDS011;30544;42.196;24.336;2023-03-19T10:13:40;4.50;;;2.45;;
26375;SDS011;30544;42.196;24.336;2023-03-19T10:16:17;7.00;;;3.30;;
26375;SDS011;30544;42.196;24.336;2023-03-19T10:18:48;5.30;;;2.97;;
26375;SDS011;30544;42.196;24.336;2023-03-19T10:21:20;4.15;;;2.40;;
26375;SDS011;30544;42.196;24.336;2023-03-19T10:23:53;5.00;;;2.40;;
26375;SDS011;30544;42.196;24.336;2023-03-19T10:26:26;9.90;;;2.95;;
26375;SDS011;30544;42.196;24.336;2023-03-19T10:28:57;3.83;;;2.75;;
26375;SDS011;30544;42.196;24.336;2023-03-19T10:31:29;6.00;;;3.30;;
26375;SDS011;30544;42.196;24.336;2023-03-19T10:34:13;5.47;;;2.88;;
26375;SDS011;30544;42.196;24.336;2023-03-19T10:36:58;7.53;;;3.10;;
26375;SDS011;30544;42.196;24.336;2023-03-19T10:39:28;6.40;;;2.85;;
26375;SDS011;30544;42.196;24.336;2023-03-19T10:41:59;4.32;;;2.88;;
26375;SDS011;30544;42.196;24.336;2023-03-19T10:44:34;3.83;;;2.90;;
26375;SDS011;30544;42.196;24.336;2023-03-19T10:47:08;3.97;;;2.92;;
26375;SDS011;30544;42.196;24.336;2023-03-19T10:49:36;5.53;;;2.92;;
26375;SDS011;30544;42.196;24.336;2023-03-19T10:52:05;5.82;;;2.92;;
26375;SDS011;30544;42.196;24.336;2023-03-19T10:54:42;6.07;;;2.80;;
26375;SDS011;30544;42.196;24.336;2023-03-19T10:57:19;4.57;;;2.30;;
26375;SDS011;30544;42.196;24.336;2023-03-19T10:59:48;4.15;;;2.55;;
26375;SDS011;30544;42.196;24.336;2023-03-19T11:02:15;6.75;;;2.33;;
26375;SDS011;30544;42.196;24.336;2023-03-19T11:04:44;3.85;;;2.67;;
26375;SDS011;30544;42.196;24.336;2023-03-19T11:07:13;3.65;;;2.40;;
26375;SDS011;30544;42.196;24.336;2023-03-19T11:09:44;6.03;;;2.50;;
26375;SDS011;30544;42.196;24.336;2023-03-19T11:12:17;3.45;;;2.28;;
26375;SDS011;30544;42.196;24.336;2023-03-19T11:14:47;3.45;;;2.58;;
26375;SDS011;30544;42.196;24.336;2023-03-19T11:17:17;3.42;;;2.65;;
26375;SDS011;30544;42.196;24.336;2023-03-19T11:19:48;4.63;;;2.90;;
26375;SDS011;30544;42.196;24.336;2023-03-19T11:22:20;4.13;;;2.60;;
26375;SDS011;30544;42.196;24.336;2023-03-19T11:24:50;4.00;;;2.83;;
26375;SDS011;30544;42.196;24.336;2023-03-19T11:27:25;6.28;;;2.35;;
26375;SDS011;30544;42.196;24.336;2023-03-19T11:29:52;4.10;;;2.92;;
26375;SDS011;30544;42.196;24.336;2023-03-19T11:35:31;4.53;;;3.05;;
26375;SDS011;30544;42.196;24.336;2023-03-19T11:38:03;5.50;;;3.22;;
26375;SDS011;30544;42.196;24.336;2023-03-19T11:40:41;6.43;;;3.47;;
26375;SDS011;30544;42.196;24.336;2023-03-19T11:43:20;4.68;;;2.55;;
26375;SDS011;30544;42.196;24.336;2023-03-19T11:45:59;3.70;;;2.45;;
26375;SDS011;30544;42.196;24.336;2023-03-19T11:48:39;3.75;;;2.20;;
26375;SDS011;30544;42.196;24.336;2023-03-19T11:51:25;1.67;;;1.20;;
26375;SDS011;30544;42.196;24.336;2023-03-19T11:54:02;1.00;;;0.90;;
26375;SDS011;30544;42.196;24.336;2023-03-19T11:56:35;2.58;;;1.92;;
26375;SDS011;30544;42.196;24.336;2023-03-19T12:02:15;1.67;;;1.20;;
26375;SDS011;30544;42.196;24.336;2023-03-19T12:04:57;1.50;;;1.30;;
26375;SDS011;30544;42.196;24.336;2023-03-19T12:07:31;2.40;;;1.63;;
26375;SDS011;30544;42.196;24.336;2023-03-19T12:10:31;3.25;;;1.90;;
26375;SDS011;30544;42.196;24.336;2023-03-19T12:13:17;3.88;;;1.67;;
26375;SDS011;30544;42.196;24.336;2023-03-19T12:15:55;3.95;;;1.55;;
26375;SDS011;30544;42.196;24.336;2023-03-19T12:18:35;4.80;;;2.35;;
26375;SDS011;30544;42.196;24.336;2023-03-19T12:21:26;1.77;;;1.42;;
26375;SDS011;30544;42.196;24.336;2023-03-19T12:24:05;3.67;;;1.90;;
26375;SDS011;30544;42.196;24.336;2023-03-19T12:26:45;3.67;;;2.15;;
26375;SDS011;30544;42.196;24.336;2023-03-19T12:29:22;4.55;;;2.55;;
26375;SDS011;30544;42.196;24.336;2023-03-19T12:32:11;6.65;;;2.17;;
26375;SDS011;30544;42.196;24.336;2023-03-19T12:34:50;6.90;;;3.15;;
26375;SDS011;30544;42.196;24.336;2023-03-19T12:37:20;5.05;;;2.40;;
26375;SDS011;30544;42.196;24.336;2023-03-19T12:39:59;4.25;;;2.22;;
26375;SDS011;30544;42.196;24.336;2023-03-19T12:42:41;3.53;;;2.67;;
26375;SDS011;30544;42.196;24.336;2023-03-19T12:45:12;3.88;;;2.03;;
26375;SDS011;30544;42.196;24.336;2023-03-19T12:47:49;1.85;;;1.40;;
26375;SDS011;30544;42.196;24.336;2023-03-19T12:50:22;1.38;;;1.27;;
26375;SDS011;30544;42.196;24.336;2023-03-19T12:52:52;4.85;;;2.97;;
26375;SDS011;30544;42.196;24.336;2023-03-19T12:55:24;3.97;;;2.03;;
26375;SDS011;30544;42.196;24.336;2023-03-19T12:58:02;4.07;;;2.42;;
26375;SDS011;30544;42.196;24.336;2023-03-19T13:00:31;4.72;;;2.70;;
26375;SDS011;30544;42.196;24.336;2023-03-19T13:03:03;5.38;;;2.03;;
26375;SDS011;30544;42.196;24.336;2023-03-19T13:05:38;7.95;;;3.08;;
26375;SDS011;30544;42.196;24.336;2023-03-19T13:08:11;14.45;;;6.35;;
26375;SDS011;30544;42.196;24.336;2023-03-19T13:10:42;4.75;;;2.65;;
26375;SDS011;30544;42.196;24.336;2023-03-19T13:13:14;4.65;;;3.10;;
26375;SDS011;30544;42.196;24.336;2023-03-19T13:15:53;3.05;;;2.05;;
26375;SDS011;30544;42.196;24.336;2023-03-19T13:18:28;5.97;;;2.67;;
26375;SDS011;30544;42.196;24.336;2023-03-19T13:21:15;3.17;;;2.25;;
26375;SDS011;30544;42.196;24.336;2023-03-19T13:23:47;3.47;;;2.40;;
26375;SDS011;30544;42.196;24.336;2023-03-19T13:26:17;3.35;;;2.20;;
26375;SDS011;30544;42.196;24.336;2023-03-19T13:28:58;3.03;;;1.88;;
26375;SDS011;30544;42.196;24.336;2023-03-19T13:31:27;5.93;;;2.70;;
26375;SDS011;30544;42.196;24.336;2023-03-19T13:33:59;3.58;;;2.40;;
26375;SDS011;30544;42.196;24.336;2023-03-19T13:36:28;3.75;;;2.30;;
26375;SDS011;30544;42.196;24.336;2023-03-19T13:38:56;5.68;;;2.50;;
26375;SDS011;30544;42.196;24.336;2023-03-19T13:44:25;3.60;;;2.28;;
26375;SDS011;30544;42.196;24.336;2023-03-19T13:46:59;3.13;;;2.17;;
26375;SDS011;30544;42.196;24.336;2023-03-19T13:49:27;4.43;;;2.20;;
26375;SDS011;30544;42.196;24.336;2023-03-19T13:55:28;2.35;;;1.70;;
26375;SDS011;30544;42.196;24.336;2023-03-19T13:58:14;4.95;;;2.25;;
26375;SDS011;30544;42.196;24.336;2023-03-19T14:01:00;4.38;;;2.42;;
26375;SDS011;30544;42.196;24.336;2023-03-19T14:03:27;2.97;;;2.20;;
26375;SDS011;30544;42.196;24.336;2023-03-19T14:05:56;2.30;;;1.73;;
26375;SDS011;30544;42.196;24.336;2023-03-19T14:08:24;3.85;;;2.28;;
26375;SDS011;30544;42.196;24.336;2023-03-19T14:10:53;5.82;;;2.00;;
26375;SDS011;30544;42.196;24.336;2023-03-19T14:13:30;4.78;;;1.95;;
26375;SDS011;30544;42.196;24.336;2023-03-19T14:16:03;5.15;;;2.65;;
26375;SDS011;30544;42.196;24.336;2023-03-19T14:18:32;4.32;;;2.45;;
26375;SDS011;30544;42.196;24.336;2023-03-19T14:21:06;9.30;;;2.72;;
26375;SDS011;30544;42.196;24.336;2023-03-19T14:23:38;5.22;;;2.80;;
26375;SDS011;30544;42.196;24.336;2023-03-19T14:26:09;3.72;;;2.35;;
26375;SDS011;30544;42.196;24.336;2023-03-19T14:28:44;3.00;;;2.58;;
26375;SDS011;30544;42.196;24.336;2023-03-19T14:31:20;7.13;;;3.58;;
26375;SDS011;30544;42.196;24.336;2023-03-19T14:33:53;4.30;;;2.80;;
26375;SDS011;30544;42.196;24.336;2023-03-19T14:36:24;9.27;;;3.03;;
26375;SDS011;30544;42.196;24.336;2023-03-19T14:38:53;7.82;;;2.90;;
26375;SDS011;30544;42.196;24.336;2023-03-19T14:41:24;6.93;;;3.05;;
26375;SDS011;30544;42.196;24.336;2023-03-19T14:43:57;5.70;;;2.65;;
26375;SDS011;30544;42.196;24.336;2023-03-19T14:46:43;5.80;;;2.95;;
26375;SDS011;30544;42.196;24.336;2023-03-19T14:49:28;7.95;;;4.70;;
26375;SDS011;30544;42.196;24.336;2023-03-19T14:52:11;6.57;;;4.30;;
26375;SDS011;30544;42.196;24.336;2023-03-19T14:54:43;5.38;;;4.22;;